KDLL

Baraboo-Wisconsin Dells Regional Airport

Baraboo, Wisconsin, USA
METAR KDLL 161035Z AUTO 06008KT 7SM BKN070 OVC085 M03/M03 A2975 RMK AO2 T10261032
Observed Flight Rules
Dec-16 @ 10:35 UTC (26 minutes ago) Visual Flight Rules
Wind Visibility Clouds
60° at 8 knots 7 miles
  • Broken at 7,000' AGL
  • Overcast at 8,500' AGL
Temperatures Readings
Current -3°C / 27°F
Dewpoint -3°C / 27°F
Humidity 100%
Altimeter 29.75" Hg
Pressure 1007 hPa
Elevation 299
METAR KDLL 161035Z AUTO 06008KT 7SM BKN070 OVC085 M03/M03 A2975 RMK AO2 T10261032
Observed Flight Rules
Dec-16 @ 10:35 UTC
(26 minutes ago)
VFR
Wind Visibility
60° at 8 knots 7 miles
Clouds
  • Broken at 7,000' AGL
  • Overcast at 8,500' AGL
Temperature Dewpoint
-3°C / 27°F -3°C / 27°F
Humidity Altimeter Pressure
100% 29.75" Hg 1007 hPa